Data for 12/16/2009

Time Sea-Level Adjusted Pressure Absolute Pressure Temperature Relative Humidity Dew Point Precipitation   
(mb) (inHg) (mb) (inHg) (C) (F) (%) (C) (F) (mm) (in)
10:38 1021 30.15 850 25.1 2.8 37.1 58 -4.6 23.8 3.085 0.121
10:39 1021 30.15 850 25.1 2.8 37 58 -4.7 23.6 3.085 0.121
10:40 1021 30.15 850 25.1 2.8 37.1 58 -4.7 23.6 3.074 0.121
10:51 1021 30.15 850 25.1 2 35.6 66 -3.6 25.4 2.297 0.09
10:52 1021 30.15 850 25.1 2 35.5 66 -3.8 25.1 2.195 0.086
10:53 1021 30.15 850 25.1 2 35.6 66 -3.6 25.5 2.342 0.092
10:54 1021 30.15 850 25.1 2 35.6 66 -3.6 25.5 2.319 0.091
10:55 1021 30.15 850 25.1 2 35.7 66 -3.6 25.5 2.314 0.091
10:56 1021 30.15 850 25.1 2.1 35.8 65 -3.8 25.1 2.41 0.095
10:57 1021 30.15 850 25.1 2.2 35.9 66 -3.6 25.6 2.466 0.097
10:58 1021 30.15 850 25.1 2.3 36.1 66 -3.5 25.7 2.506 0.099
10:59 1021 30.15 850 25.1 2.3 36.2 66 -3.4 25.9 2.563 0.101
11:00 1021 30.15 850 25.1 2.5 36.5 65 -3.4 25.9 2.682 0.106
11:01 1021 30.15 850 25.1 2.6 36.6 65 -3.4 25.8 2.959 0.116
11:02 1021 30.15 850 25.1 2.6 36.6 64 -3.5 25.8 3.118 0.123
11:03 1021 30.15 850 25.1 2.5 36.4 65 -3.3 26 3.061 0.121
11:04 1021 30.15 850 25.1 2.2 36 67 -3.2 26.2 2.806 0.11
11:05 1021 30.15 850 25.1 2.1 35.7 67 -3.5 25.7 2.607 0.103
11:06 1021 30.15 850 25.1 2 35.6 67 -3.5 25.7 2.556 0.101
11:07 1021 30.15 850 25.1 2 35.6 66 -3.8 25.2 2.561 0.101
11:08 1021 30.15 850 25.1 2.1 35.8 65 -3.9 25.1 2.594 0.102
11:09 1021 30.15 850 25.1 2.2 35.9 64 -3.9 25 2.673 0.105
11:10 1021 30.15 850 25.1 2.4 36.2 63 -3.9 25 2.82 0.111
11:11 1021 30.15 850 25.1 2.6 36.7 62 -3.9 24.9 3.12 0.123
11:12 1021 30.15 850 25.1 2.8 37 61 -3.9 25 3.363 0.132
11:13 1021 30.15 850 25.1 3 37.3 61 -3.9 25 3.567 0.14
11:14 1021 30.15 850 25.1 3.2 37.7 60 -3.9 25 3.696 0.146
11:15 1021 30.15 850 25.1 3.5 38.4 59 -3.7 25.4 4.115 0.162
11:16 1021 30.15 850 25.1 3.9 39 58 -3.6 25.6 4.415 0.174
11:17 1021 30.15 850 25.1 4.1 39.4 57 -3.5 25.6 4.545 0.179
11:18 1021 30.15 850 25.1 4.3 39.8 56 -3.7 25.4 4.636 0.183
11:19 1021 30.15 850 25.1 4.3 39.7 56 -3.7 25.3 4.726 0.186
11:20 1021 30.15 850 25.1 3.8 38.9 58 -3.8 25.1 4.465 0.176
11:21 1021 30.15 850 25.1 3.4 38 59 -4 24.8 4.024 0.158
11:22 1021 30.15 850 25.1 3.1 37.6 60 -4 24.8 3.723 0.147
11:23 1021 30.15 850 25.1 3 37.3 60 -4 24.7 3.531 0.139
11:24 1021 30.15 850 25.1 2.9 37.1 60 -4.1 24.6 3.429 0.135
11:25 1021 30.15 850 25.1 2.8 37.1 60 -4.1 24.6 3.366 0.133
11:26 1021 30.15 850 25.1 2.8 37.1 61 -4 24.7 3.395 0.134
11:27 1021 30.15 850 25.1 2.9 37.1 61 -4 24.7 3.406 0.134
11:28 1021 30.15 850 25.1 2.9 37.3 60 -4 24.8 3.445 0.136
11:29 1021 30.15 850 25.1 2.9 37.3 60 -4 24.7 3.525 0.139
11:30 1021 30.15 850 25.1 3 37.5 60 -4 24.8 3.536 0.139
11:31 1021 30.15 850 25.1 2.9 37.2 63 -3.5 25.7 3.507 0.138
11:32 1021 30.15 850 25.1 2.6 36.7 63 -3.7 25.4 3.202 0.126
11:33 1021 30.15 850 25.1 2.4 36.4 65 -3.5 25.7 3.009 0.118
11:34 1021 30.15 850 25.1 2.2 36 65 -3.6 25.5 2.749 0.108
11:35 1021 30.15 850 25.1 2.1 35.7 66 -3.7 25.4 2.579 0.102
11:36 1021 30.15 850 25.1 2 35.6 64 -4 24.8 2.494 0.098
11:37 1021 30.15 850 25.1 2.1 35.8 64 -4 24.8 2.556 0.101
11:38 1021 30.15 850 25.1 2.2 35.9 64 -3.9 25 2.658 0.105
11:39 1021 30.15 850 25.1 2.3 36.1 65 -3.6 25.5 2.697 0.106
11:40 1021 30.15 850 25.1 2.2 36 64 -4 24.9 2.72 0.107
11:41 1021 30.15 850 25.1 2.3 36.1 66 -3.5 25.7 2.692 0.106
11:42 1021 30.15 850 25.1 2.1 35.7 66 -3.6 25.6 2.607 0.103
11:43 1021 30.15 850 25.1 1.9 35.5 67 -3.6 25.5 2.414 0.095
11:44 1021 30.15 850 25.1 1.8 35.3 70 -3.1 26.3 2.29 0.09
11:45 1021 30.15 850 25.1 1.6 34.9 70 -3.3 26.1 2.086 0.082
11:46 1021 30.15 850 25.1 1.6 34.8 70 -3.4 25.9 2.063 0.081
11:47 1021 30.15 850 25.1 1.5 34.7 70 -3.4 26 1.984 0.078
11:48 1021 30.15 850 25.1 1.5 34.7 71 -3.3 26.1 1.927 0.076
11:49 1021 30.15 850 25.1 1.5 34.6 71 -3.3 26.1 1.91 0.075
11:50 1021 30.15 850 25.1 1.4 34.6 71 -3.2 26.3 1.871 0.074
11:51 1021 30.15 850 25.1 1.4 34.5 73 -3 26.6 1.842 0.073
11:52 1021 30.15 850 25.1 1.3 34.4 73 -3.1 26.4 1.803 0.071
11:53 1021 30.15 850 25.1 1.3 34.4 71 -3.3 26.1 1.808 0.071
11:54 1021 30.15 850 25.1 1.4 34.5 70 -3.5 25.7 1.842 0.073
11:55 1021 30.15 850 25.1 1.6 34.8 69 -3.5 25.8 1.988 0.078
11:56 1021 30.15 850 25.1 1.7 35 69 -3.3 26 2.096 0.083
11:57 1021 30.15 850 25.1 1.6 34.9 72 -2.9 26.8 2.107 0.083
11:58 1021 30.15 850 25.1 1.6 34.8 71 -3.2 26.3 2.06 0.081
11:59 1021 30.15 850 25.1 1.6 35 67 -3.9 25.1 2.032 0.08
12:00 1021 30.15 850 25.1 1.9 35.4 64 -4.2 24.5 2.281 0.09
12:01 1021 30.15 850 25.1 2.1 35.9 67 -3.3 26.1 2.512 0.099
12:02 1021 30.15 850 25.1 2 35.6 68 -3.3 26 2.473 0.097
12:03 1021 30.15 850 25.1 2 35.5 67 -3.6 25.5 2.416 0.095
12:04 1021 30.15 850 25.1 2.1 35.8 65 -3.9 25 2.563 0.101
12:05 1021 30.15 850 25.1 2.3 36.1 66 -3.3 26 2.681 0.106
12:06 1021 30.15 850 25.1 2.2 35.9 68 -3.1 26.4 2.642 0.104
12:07 1021 30.15 850 25.1 2.1 35.7 68 -3.3 26.1 2.563 0.101
12:08 1021 30.15 850 25.1 2 35.6 67 -3.6 25.6 2.524 0.099
12:09 1021 30.15 850 25.1 2 35.7 66 -3.7 25.4 2.473 0.097
12:10 1021 30.15 850 25.1 2 35.7 68 -3.3 26 2.536 0.1
12:11 1021 30.15 850 25.1 2 35.7 69 -3.2 26.3 2.53 0.1
12:12 1021 30.15 850 25.1 2 35.7 67 -3.5 25.7 2.569 0.101
12:13 1021 30.15 850 25.1 2.1 35.8 67 -3.3 26 2.682 0.106
12:14 1020 30.12 850 25.1 2.2 35.9 65 -3.7 25.3 2.699 0.106
12:15 1021 30.15 850 25.1 2.2 36 66 -3.6 25.6 2.744 0.108
12:16 1021 30.15 850 25.1 2.2 36 69 -2.9 26.7 2.738 0.108
12:17 1021 30.15 850 25.1 2.1 35.8 67 -3.3 26.1 2.681 0.106
12:18 1021 30.15 850 25.1 2.2 35.9 68 -3.1 26.4 2.658 0.105
12:19 1021 30.15 850 25.1 2 35.7 70 -2.8 26.9 2.573 0.101
12:20 1021 30.15 850 25.1 2 35.6 72 -2.6 27.3 2.528 0.1
12:21 1021 30.15 850 25.1 1.8 35.3 70 -3 26.6 2.37 0.093
12:22 1020 30.12 850 25.1 1.9 35.4 68 -3.4 25.8 2.393 0.094
12:23 1021 30.15 850 25.1 2.1 35.8 67 -3.4 25.8 2.512 0.099
12:24 1021 30.15 850 25.1 2.2 35.9 68 -3.2 26.3 2.602 0.102
12:25 1020 30.12 850 25.1 2.2 35.9 68 -3.1 26.4 2.613 0.103
12:26 1020 30.12 850 25.1 2.2 35.9 68 -3 26.5 2.647 0.104
12:27 1020 30.12 850 25.1 2.2 35.9 69 -3 26.7 2.635 0.104
12:28 1020 30.12 850 25.1 2.2 35.9 69 -2.9 26.8 2.658 0.105
12:29 1020 30.12 850 25.1 2.1 35.9 70 -2.7 27.2 2.647 0.104
12:30 1020 30.12 850 25.1 2 35.7 71 -2.6 27.3 2.584 0.102
12:31 1020 30.12 850 25.1 2 35.6 69 -3.1 26.5 2.476 0.097
12:32 1020 30.12 850 25.1 2.1 35.7 69 -3.1 26.4 2.578 0.101
12:33 1020 30.12 850 25.1 2.1 35.8 69 -3.1 26.5 2.623 0.103
12:34 1020 30.12 849 25.07 2.1 35.9 69 -2.9 26.8 2.68 0.106
12:35 1020 30.12 849 25.07 2.1 35.8 69 -2.9 26.7 2.742 0.108
12:36 1020 30.12 850 25.1 2.1 35.8 68 -3.2 26.3 2.742 0.108
12:37 1020 30.12 850 25.1 2.2 35.9 69 -3 26.5 2.776 0.109
12:38 1020 30.12 850 25.1 2.1 35.8 70 -2.9 26.8 2.747 0.108
12:39 1020 30.12 850 25.1 2.1 35.7 72 -2.5 27.5 2.6 0.102
12:40 1020 30.12 850 25.1 1.9 35.5 73 -2.5 27.6 2.543 0.1
12:41 1020 30.12 850 25.1 1.9 35.4 74 -2.3 27.9 2.458 0.097
12:42 1020 30.12 850 25.1 1.8 35.2 74 -2.3 27.9 2.39 0.094
12:43 1020 30.12 850 25.1 1.8 35.2 75 -2.3 27.9 2.294 0.09
12:44 1020 30.12 850 25.1 1.7 35.1 74 -2.4 27.6 2.289 0.09
12:45 1020 30.12 850 25.1 1.7 35.1 73 -2.5 27.4 2.3 0.091
12:46 1020 30.12 849 25.07 1.8 35.2 73 -2.5 27.4 2.294 0.09
12:47 1020 30.12 849 25.07 1.8 35.2 71 -3 26.6 2.254 0.089
12:48 1020 30.12 849 25.07 1.9 35.4 68 -3.4 25.9 2.356 0.093
12:49 1020 30.12 849 25.07 2 35.7 68 -3.2 26.3 2.503 0.099
12:50 1020 30.12 849 25.07 2.1 35.7 72 -2.5 27.5 2.537 0.1
12:51 1020 30.12 849 25.07 2 35.5 73 -2.4 27.6 2.492 0.098
12:52 1020 30.12 849 25.07 1.9 35.4 73 -2.5 27.6 2.492 0.098
12:53 1020 30.12 849 25.07 2 35.5 72 -2.5 27.4 2.554 0.101
12:54 1020 30.12 849 25.07 2 35.7 71 -2.8 27 2.628 0.103
12:55 1020 30.12 849 25.07 2.1 35.9 70 -2.8 27 2.696 0.106
12:56 1020 30.12 849 25.07 2.2 35.9 70 -2.8 27 2.792 0.11
12:57 1020 30.12 849 25.07 2.3 36.1 69 -2.7 27.1 2.848 0.112
12:58 1020 30.12 850 25.1 2.4 36.3 69 -2.7 27.2 2.848 0.112
12:59 1020 30.12 850 25.1 2.5 36.4 68 -2.8 27 2.865 0.113
13:00 1020 30.12 850 25.1 2.5 36.6 69 -2.5 27.5 2.933 0.115
13:01 1020 30.12 850 25.1 2.5 36.5 72 -2.1 28.3 3.03 0.119
13:02 1020 30.12 850 25.1 2.4 36.3 72 -2.2 28.1 3.047 0.12
13:03 1020 30.12 850 25.1 2.4 36.3 71 -2.4 27.7 3.092 0.122
13:04 1020 30.12 850 25.1 2.4 36.3 70 -2.6 27.4 3.092 0.122
13:05 1020 30.12 849 25.07 2.5 36.5 66 -3.3 26.1 3.058 0.12
13:06 1020 30.12 849 25.07 2.6 36.6 64 -3.5 25.7 3.092 0.122
13:07 1020 30.12 849 25.07 2.7 36.9 65 -3.2 26.2 3.148 0.124
13:08 1020 30.12 849 25.07 2.8 37 68 -2.6 27.3 3.177 0.125
13:09 1020 30.12 849 25.07 2.6 36.7 67 -2.9 26.8 3.114 0.123
13:10 1020 30.12 849 25.07 2.6 36.6 65 -3.4 25.9 3.052 0.12
13:11 1020 30.12 849 25.07 2.7 36.8 63 -3.6 25.5 3.12 0.123
13:12 1020 30.12 849 25.07 2.8 37 64 -3.4 25.9 3.222 0.127
13:13 1020 30.12 849 25.07 2.9 37.2 63 -3.5 25.7 3.25 0.128
13:14 1020 30.12 849 25.07 3 37.4 64 -3.2 26.3 3.335 0.131
13:15 1020 30.12 850 25.1 3.1 37.7 63 -3.2 26.2 3.454 0.136
13:16 1020 30.12 849 25.07 3.2 37.8 63 -3.3 26.1 3.584 0.141
13:17 1020 30.12 850 25.1 3.2 37.8 62 -3.5 25.7 3.641 0.143
13:18 1020 30.12 850 25.1 3.2 37.8 61 -3.6 25.5 3.731 0.147
13:19 1020 30.12 850 25.1 3.3 38 60 -3.8 25.2 3.822 0.15
13:20 1020 30.12 850 25.1 3.5 38.3 60 -3.6 25.5 3.952 0.156
13:21 1020 30.12 850 25.1 3.7 38.6 59 -3.7 25.3 4.054 0.16
13:22 1020 30.12 850 25.1 3.8 38.8 58 -3.7 25.4 4.15 0.163
13:23 1020 30.12 850 25.1 3.8 38.9 58 -3.6 25.4 4.269 0.168
13:24 1020 30.12 850 25.1 3.9 39.1 58 -3.6 25.5 4.394 0.173
13:25 1020 30.12 850 25.1 4 39.1 59 -3.3 26.1 4.427 0.174
13:26 1020 30.12 850 25.1 3.9 39.1 59 -3.3 26.1 4.427 0.174
13:27 1020 30.12 850 25.1 3.9 39.1 59 -3.3 26.1 4.399 0.173
13:28 1020 30.12 850 25.1 3.9 39 60 -3.2 26.3 4.326 0.17
13:29 1020 30.12 850 25.1 3.8 38.9 60 -3.3 26 4.263 0.168
13:30 1020 30.12 850 25.1 3.8 38.8 60 -3.3 26.1 4.19 0.165
13:31 1020 30.12 850 25.1 3.7 38.6 61 -3.1 26.4 4.099 0.161
13:32 1020 30.12 850 25.1 3.6 38.4 62 -3.1 26.5 3.962 0.156
13:33 1020 30.12 850 25.1 3.5 38.2 63 -2.8 26.9 3.888 0.153
13:34 1020 30.12 850 25.1 3.3 38 64 -2.9 26.8 3.774 0.149
13:35 1020 30.12 850 25.1 3.3 37.9 64 -2.9 26.7 3.706 0.146
13:36 1020 30.12 850 25.1 3.2 37.8 64 -2.9 26.9 3.593 0.141
13:37 1020 30.12 850 25.1 3.2 37.7 65 -2.8 27 3.587 0.141
13:38 1020 30.12 850 25.1 3.2 37.7 65 -2.7 27.1 3.565 0.14
13:39 1020 30.12 850 25.1 3.2 37.7 65 -2.7 27.2 3.548 0.14
13:40 1020 30.12 850 25.1 3.1 37.6 65 -2.8 27 3.554 0.14
13:41 1020 30.12 850 25.1 3.2 37.7 65 -2.7 27.1 3.577 0.141
13:42 1020 30.12 850 25.1 3.1 37.6 65 -2.8 27 3.594 0.141
13:43 1020 30.12 850 25.1 3.2 37.7 65 -2.7 27.1 3.644 0.143
13:44 1020 30.12 850 25.1 3.2 37.7 65 -2.7 27.2 3.666 0.144
13:45 1020 30.12 850 25.1 3.1 37.6 65 -2.9 26.9 3.677 0.145
13:46 1020 30.12 850 25.1 3.1 37.6 65 -2.7 27.1 3.637 0.143
13:47 1020 30.12 850 25.1 3 37.4 65 -2.9 26.8 3.563 0.14
13:48 1020 30.12 850 25.1 2.9 37.2 66 -2.9 26.8 3.411 0.134
13:49 1020 30.12 850 25.1 2.7 36.9 66 -2.9 26.8 3.302 0.13
13:50 1020 30.12 850 25.1 2.6 36.7 67 -2.9 26.8 3.132 0.123
13:51 1020 30.12 850 25.1 2.5 36.5 68 -2.7 27.1 3.036 0.12
13:52 1020 30.12 850 25.1 2.4 36.2 71 -2.4 27.7 2.894 0.114
13:53 1020 30.12 850 25.1 2.2 36 69 -2.9 26.7 2.702 0.106
13:54 1020 30.12 850 25.1 2.3 36.1 68 -3.1 26.5 2.753 0.108
13:55 1020 30.12 850 25.1 2.5 36.4 66 -3.2 26.2 2.894 0.114
13:56 1020 30.12 850 25.1 2.7 36.8 65 -3.2 26.2 3.092 0.122
13:57 1020 30.12 849 25.07 2.9 37.2 64 -3.2 26.3 3.284 0.129
13:58 1020 30.12 849 25.07 3.1 37.5 63 -3.3 26.1 3.482 0.137
13:59 1020 30.12 850 25.1 3.2 37.8 62 -3.3 26 3.623 0.143
14:00 1020 30.12 850 25.1 3.3 38 62 -3.3 26 3.776 0.149
14:01 1020 30.12 850 25.1 3.4 38.2 61 -3.3 26 3.866 0.152
14:02 1020 30.12 850 25.1 3.4 38.2 62 -3.2 26.3 3.923 0.154
14:03 1020 30.12 850 25.1 3.4 38.1 62 -3.3 26.1 3.974 0.156
14:04 1020 30.12 850 25.1 3.4 38.1 62 -3.2 26.3 3.929 0.155
14:05 1020 30.12 850 25.1 3.3 37.9 62 -3.4 25.9 3.832 0.151
14:06 1020 30.12 850 25.1 3.3 37.9 61 -3.5 25.7 3.821 0.15
14:07 1020 30.12 849 25.07 3.4 38.1 61 -3.5 25.7 3.86 0.152
14:08 1020 30.12 849 25.07 3.5 38.3 60 -3.6 25.6 3.985 0.157
14:09 1020 30.12 849 25.07 3.7 38.6 59 -3.7 25.4 4.07 0.16
14:10 1020 30.12 849 25.07 3.8 38.8 58 -3.6 25.5 4.194 0.165
14:11 1020 30.12 849 25.07 3.9 39 58 -3.6 25.6 4.285 0.169
14:12 1020 30.12 849 25.07 4 39.2 58 -3.4 25.8 4.364 0.172
14:13 1020 30.12 849 25.07 4.1 39.3 58 -3.5 25.7 4.432 0.174
14:14 1020 30.12 849 25.07 4.1 39.4 58 -3.5 25.8 4.46 0.176
14:15 1020 30.12 849 25.07 4.2 39.6 59 -3 26.6 4.454 0.175
14:16 1020 30.12 849 25.07 4 39.1 63 -2.4 27.8 4.307 0.17
14:17 1020 30.12 849 25.07 3.5 38.3 66 -2.3 27.9 4.132 0.163
14:18 1020 30.12 849 25.07 3.1 37.6 68 -2.2 28 3.883 0.153
14:19 1020 30.12 849 25.07 2.8 37.1 70 -2.1 28.3 3.758 0.148
14:20 1020 30.12 850 25.1 2.6 36.7 71 -2.2 28 3.537 0.139
14:21 1020 30.12 850 25.1 2.5 36.5 71 -2.2 28.1 3.396 0.134
14:22 1020 30.12 850 25.1 2.4 36.3 73 -2 28.4 3.254 0.128
14:23 1020 30.12 850 25.1 2.3 36.1 73 -2.2 28.1 3.203 0.126
14:24 1020 30.12 850 25.1 2.3 36.1 70 -2.6 27.3 3.107 0.122
14:25 1020 30.12 850 25.1 2.4 36.4 68 -2.8 26.9 3.175 0.125
14:26 1020 30.12 850 25.1 2.6 36.7 67 -3 26.6 3.266 0.129
14:27 1020 30.12 850 25.1 2.8 37 65 -3.1 26.5 3.373 0.133
14:28 1020 30.12 850 25.1 3 37.3 65 -3 26.7 3.498 0.138
14:29 1020 30.12 850 25.1 3 37.4 65 -2.8 26.9 3.571 0.141
14:30 1020 30.12 850 25.1 3 37.5 64 -3.1 26.5 3.594 0.141
14:31 1020 30.12 850 25.1 3.1 37.6 64 -3.1 26.4 3.645 0.144
14:32 1021 30.15 850 25.1 3.2 37.8 63 -3.2 26.3 3.707 0.146
14:33 1021 30.15 850 25.1 3.3 38 63 -3.1 26.4 3.826 0.151
14:34 1021 30.15 850 25.1 3.4 38.1 64 -2.8 26.9 3.877 0.153
14:35 1020 30.12 850 25.1 3.3 37.9 64 -2.9 26.8 3.848 0.151
14:36 1021 30.15 850 25.1 3.2 37.7 65 -2.7 27.2 3.814 0.15
14:37 1021 30.15 850 25.1 3.1 37.6 66 -2.6 27.4 3.747 0.148
14:38 1021 30.15 850 25.1 2.9 37.2 66 -2.8 27 3.543 0.139
14:39 1021 30.15 850 25.1 2.8 37 67 -2.6 27.2 3.39 0.133
14:40 1020 30.12 850 25.1 2.9 37.1 64 -3.2 26.2 3.379 0.133
14:41 1020 30.12 850 25.1 3.1 37.5 63 -3.3 26.1 3.554 0.14
14:42 1021 30.15 850 25.1 3.3 37.9 65 -2.7 27.1 3.701 0.146
14:43 1020 30.12 850 25.1 3.2 37.7 65 -2.8 27 3.571 0.141
14:44 1021 30.15 850 25.1 3 37.4 66 -2.8 27 3.464 0.136
14:45 1021 30.15 850 25.1 2.9 37.2 68 -2.6 27.4 3.367 0.133
14:46 1021 30.15 850 25.1 2.8 37.1 65 -3.1 26.5 3.271 0.129
14:47 1021 30.15 850 25.1 3 37.4 63 -3.3 26 3.373 0.133
14:48 1021 30.15 850 25.1 3.2 37.7 64 -3.1 26.5 3.594 0.141
14:49 1021 30.15 850 25.1 3.2 37.8 65 -2.8 27 3.633 0.143
14:50 1021 30.15 850 25.1 3.1 37.6 65 -2.8 26.9 3.531 0.139
14:51 1021 30.15 850 25.1 3 37.4 65 -3 26.6 3.458 0.136
14:52 1021 30.15 850 25.1 3 37.4 65 -3 26.6 3.441 0.135
14:53 1021 30.15 850 25.1 3 37.4 64 -3.1 26.3 3.447 0.136
14:54 1021 30.15 850 25.1 3.1 37.5 64 -3 26.5 3.469 0.137
14:55 1021 30.15 850 25.1 3.1 37.6 63 -3.3 26.1 3.486 0.137
14:56 1021 30.15 850 25.1 3.2 37.7 64 -2.9 26.8 3.582 0.141
14:57 1021 30.15 850 25.1 3.1 37.6 65 -2.8 27 3.526 0.139
14:58 1021 30.15 850 25.1 2.9 37.3 65 -3 26.7 3.379 0.133
14:59 1021 30.15 850 25.1 2.9 37.2 64 -3.2 26.3 3.316 0.131
15:00 1021 30.15 850 25.1 3 37.3 65 -3 26.7 3.356 0.132
15:01 1021 30.15 850 25.1 3 37.4 64 -3.2 26.2 3.401 0.134
15:02 1021 30.15 850 25.1 3.1 37.5 63 -3.4 25.9 3.43 0.135
15:03 1021 30.15 850 25.1 3.2 37.8 61 -3.5 25.7 3.554 0.14
15:04 1021 30.15 850 25.1 3.3 37.9 62 -3.2 26.2 3.673 0.145
15:05 1021 30.15 850 25.1 3.3 37.9 62 -3.3 26 3.684 0.145
15:06 1021 30.15 850 25.1 3.3 37.9 61 -3.5 25.6 3.713 0.146
15:07 1021 30.15 850 25.1 3.4 38 65 -2.5 27.4 3.78 0.149
15:08 1021 30.15 850 25.1 3.2 37.7 63 -3.3 26.1 3.684 0.145
15:09 1021 30.15 850 25.1 3.2 37.8 64 -3 26.6 3.622 0.143
15:10 1021 30.15 850 25.1 3.1 37.6 67 -2.4 27.6 3.628 0.143